Cheswold, Delaware
Current Conditions -  °F | °C
As of 3:58 PM on Friday 24 Oct 2014 (Local Time) from KDOV Reporting Station
Clear Clear  
Wind Chill: 65°   Ceiling: Unl
Heat Index: 65°   Visibility: 10mi
Dew Point: 45°   Wind: 14mph
Humidity: 47%   Direction: 290°WNW
Pressure: 29.82"   Gusts: NA
Location:  39.22°N, 75.59°W
Report Text: KDOV 241958Z AUTO 29012KT 10SM CLR 19/07 A2982 RMK AO2 SLP101 T01850071
Loading
Personal Weather Stations






























Interactive Weather Map
Tropical Storm Tracking
New forecast layout! Learn more

10-Day Weather Forecast

Advertisements
Track Severe Weather on mobile